Time;durP1;ratioP1;P1;durP2;ratioP2;P2;SDS_P1;SDS_P2;PMS_P1;PMS_P2;Temp;Humidity;BMP_temperature;BMP_pressure;BME280_temperature;BME280_humidity;BME280_pressure;Samples;Min_cycle;Max_cycle;Signal;HPM_P1;HPM_P2
2022/03/07 00:01:35;;;;;;;24.15;12.02;;;-0.10;99.90;;;;;;5068532;28;20139;-52
2022/03/07 00:04:02;;;;;;;22.15;11.82;;;-0.10;99.90;;;;;;5072292;28;20153;-50
2022/03/07 00:06:29;;;;;;;;;;;-0.10;99.90;;;;;;5069750;28;20566;-53
2022/03/07 00:08:58;;;;;;;26.90;12.38;;;-0.10;99.90;;;;;;5064431;28;20348;-52
2022/03/07 00:11:25;;;;;;;23.77;12.60;;;-0.10;99.90;;;;;;5069175;28;20121;-51
2022/03/07 00:13:52;;;;;;;21.48;11.63;;;-0.20;99.90;;;;;;5072005;28;20052;-49
2022/03/07 00:16:19;;;;;;;25.48;12.15;;;-0.20;99.90;;;;;;5071819;28;20044;-54
2022/03/07 00:18:47;;;;;;;25.30;12.60;;;-0.20;99.90;;;;;;5073897;28;20040;-51
2022/03/07 00:21:13;;;;;;;24.75;12.30;;;-0.20;99.90;;;;;;5084818;28;20040;-53
2022/03/07 00:23:40;;;;;;;21.73;12.63;;;-0.20;99.90;;;;;;5092418;28;20051;-51
2022/03/07 00:26:07;;;;;;;21.27;9.63;;;-0.20;99.90;;;;;;5085692;28;20072;-53
2022/03/07 00:28:34;;;;;;;23.30;12.20;;;-0.20;99.90;;;;;;5075478;28;20044;-51
2022/03/07 00:31:07;;;;;;;23.55;12.65;;;-0.20;99.90;;;;;;5091143;28;20046;-50
2022/03/07 00:33:34;;;;;;;22.35;11.65;;;-0.20;99.90;;;;;;5085972;28;20056;-50
2022/03/07 00:36:02;;;;;;;23.77;12.32;;;-0.20;99.90;;;;;;5081549;28;20040;-50
2022/03/07 00:38:29;;;;;;;24.02;12.82;;;-0.20;99.90;;;;;;5092254;28;20047;-51
2022/03/07 00:40:56;;;;;;;23.98;12.05;;;-0.20;99.90;;;;;;5090540;28;20052;-52
2022/03/07 00:43:23;;;;;;;22.58;12.48;;;-0.20;99.90;;;;;;5083263;28;20543;-50
2022/03/07 00:45:51;;;;;;;23.58;12.50;;;-0.20;99.90;;;;;;5088202;28;20136;-52
2022/03/07 00:48:19;;;;;;;22.77;12.82;;;-0.20;99.90;;;;;;5091990;28;20483;-52
2022/03/07 00:50:47;;;;;;;23.17;12.75;;;-0.20;99.90;;;;;;5082628;28;20048;-50
2022/03/07 00:53:17;;;;;;;20.85;12.32;;;-0.20;99.90;;;;;;5082242;28;20044;-54
2022/03/07 00:55:44;;;;;;;24.08;12.57;;;-0.20;99.90;;;;;;5090634;28;20044;-50
2022/03/07 00:58:13;;;;;;;26.95;13.82;;;-0.20;99.90;;;;;;5082287;28;20036;-51
2022/03/07 01:00:41;;;;;;;23.02;12.52;;;-0.20;99.90;;;;;;5071363;28;20416;-50
2022/03/07 01:03:10;;;;;;;24.98;13.10;;;-0.30;99.90;;;;;;5090485;28;20556;-51
2022/03/07 01:05:39;;;;;;;27.92;13.10;;;-0.20;99.90;;;;;;5091862;28;20036;-51
2022/03/07 01:08:07;;;;;;;24.33;12.35;;;-0.30;99.90;;;;;;5079444;28;20434;-52
2022/03/07 01:10:35;;;;;;;27.60;12.98;;;-0.20;99.90;;;;;;5074577;28;20074;-51
2022/03/07 01:13:02;;;;;;;28.17;12.95;;;-0.20;99.90;;;;;;5071583;28;20059;-50
2022/03/07 01:15:29;;;;;;;29.77;14.43;;;-0.20;99.90;;;;;;5073408;28;20075;-50
2022/03/07 01:17:59;;;;;;;24.88;12.85;;;-0.20;99.90;;;;;;5083183;28;20036;-52
2022/03/07 01:20:27;;;;;;;22.67;12.40;;;-0.20;99.90;;;;;;5091326;28;20032;-50
2022/03/07 01:22:56;;;;;;;25.90;12.88;;;-0.30;99.90;;;;;;5086056;28;20075;-49
2022/03/07 01:25:23;;;;;;;20.55;11.63;;;-0.30;99.90;;;;;;5082020;28;20063;-51
2022/03/07 01:27:50;;;;;;;24.42;13.20;;;-0.20;99.90;;;;;;5089057;28;20048;-52
2022/03/07 01:30:17;;;;;;;28.75;12.95;;;-0.20;99.90;;;;;;5091316;28;20427;-50
2022/03/07 01:32:44;;;;;;;25.90;13.43;;;-0.20;99.90;;;;;;5079121;28;20603;-50
2022/03/07 01:35:11;;;;;;;25.63;13.23;;;-0.20;99.90;;;;;;5091502;28;20474;-50
2022/03/07 01:37:38;;;;;;;;;;;-0.20;99.90;;;;;;5091801;28;20047;-50
2022/03/07 01:40:07;;;;;;;26.40;12.68;;;-0.20;99.90;;;;;;5077778;28;19974;-51
2022/03/07 01:42:34;;;;;;;24.88;12.23;;;-0.30;99.90;;;;;;5086515;28;20055;-50
2022/03/07 01:45:09;;;;;;;23.83;11.82;;;-0.30;99.90;;;;;;5091737;28;20452;-53
2022/03/07 01:47:36;;;;;;;28.08;12.25;;;-0.30;99.90;;;;;;5079637;28;20067;-51
2022/03/07 01:50:06;;;;;;;27.27;13.65;;;-0.30;99.90;;;;;;5082628;28;20377;-50
2022/03/07 01:52:36;;;;;;;20.15;10.70;;;-0.30;99.90;;;;;;5091235;28;20043;-50
2022/03/07 01:55:05;;;;;;;28.05;11.82;;;-0.30;99.90;;;;;;5090065;28;20036;-50
2022/03/07 01:57:36;;;;;;;21.92;11.65;;;-0.30;99.90;;;;;;5071104;28;20102;-50
2022/03/07 02:00:07;;;;;;;26.60;12.15;;;-0.30;99.90;;;;;;5077660;28;20412;-51
2022/03/07 02:02:38;;;;;;;23.17;12.10;;;-0.30;99.90;;;;;;5071137;28;20123;-50
2022/03/07 02:05:10;;;;;;;22.58;12.10;;;-0.30;99.90;;;;;;5071870;28;20036;-54
2022/03/07 02:07:38;;;;;;;24.23;13.85;;;-0.30;99.90;;;;;;5082913;28;20042;-50
2022/03/07 02:10:08;;;;;;;24.65;11.95;;;-0.30;99.90;;;;;;5089672;28;20036;-53
2022/03/07 02:12:35;;;;;;;25.40;12.88;;;-0.40;99.90;;;;;;5082970;28;20139;-50
2022/03/07 02:15:05;;;;;;;21.20;11.70;;;-0.40;99.90;;;;;;5062977;28;20056;-54
2022/03/07 02:17:35;;;;;;;26.30;12.73;;;-0.40;99.90;;;;;;5089875;28;20040;-55
2022/03/07 02:20:04;;;;;;;21.23;12.32;;;-0.40;99.90;;;;;;5089603;28;20039;-52
2022/03/07 02:22:31;;;;;;;26.85;12.48;;;-0.40;99.90;;;;;;5079689;28;20064;-51
2022/03/07 02:24:58;;;;;;;24.45;12.32;;;-0.40;99.90;;;;;;5079552;28;20059;-50
2022/03/07 02:27:25;;;;;;;23.60;13.18;;;-0.40;99.90;;;;;;5089576;28;20047;-54
2022/03/07 02:30:05;;;;;;;26.25;12.88;;;-0.50;99.90;;;;;;5089974;28;20576;-61
2022/03/07 02:32:35;;;;;;;23.35;12.88;;;-0.50;99.90;;;;;;5032899;28;20050;-51
2022/03/07 02:35:03;;;;;;;27.50;12.93;;;-0.50;99.90;;;;;;5051431;28;20457;-51
2022/03/07 02:37:30;;;;;;;21.83;11.48;;;-0.50;99.90;;;;;;5009573;28;20038;-53
2022/03/07 02:39:57;;;;;;;26.60;12.90;;;-0.40;99.90;;;;;;5021240;28;20033;-52
2022/03/07 02:42:40;;;;;;;25.02;12.15;;;-0.50;99.90;;;;;;5024695;28;20132;-55
2022/03/07 02:45:07;;;;;;;28.30;12.88;;;-0.50;99.90;;;;;;5032913;28;20072;-52
2022/03/07 02:47:34;;;;;;;27.45;13.27;;;-0.50;99.90;;;;;;5032941;28;20095;-52
2022/03/07 02:50:01;;;;;;;28.48;13.18;;;-0.50;99.90;;;;;;5028410;28;20045;-51
2022/03/07 02:52:28;;;;;;;27.60;13.27;;;-0.60;99.90;;;;;;5027261;28;20525;-52
2022/03/07 02:54:55;;;;;;;25.73;13.38;;;-0.60;99.90;;;;;;5034366;28;20045;-50
2022/03/07 02:57:22;;;;;;;23.70;12.48;;;-0.60;99.90;;;;;;5033812;28;20103;-50
2022/03/07 02:59:53;;;;;;;25.02;12.75;;;-0.60;99.90;;;;;;5025971;28;20038;-51
2022/03/07 03:02:21;;;;;;;29.45;14.35;;;-0.60;99.90;;;;;;5027320;28;20095;-55
2022/03/07 03:04:48;;;;;;;26.88;13.07;;;-0.50;99.90;;;;;;5034015;28;20706;-54
2022/03/07 03:07:15;;;;;;;26.30;13.98;;;-0.50;99.90;;;;;;5029670;28;20084;-51
2022/03/07 03:09:44;;;;;;;26.95;14.10;;;-0.60;99.90;;;;;;5021682;28;20088;-50
2022/03/07 03:12:11;;;;;;;24.05;12.88;;;-0.50;99.90;;;;;;4994250;28;20046;-52
2022/03/07 03:14:39;;;;;;;29.10;13.48;;;-0.50;99.90;;;;;;4994529;28;20050;-53
2022/03/07 03:17:06;;;;;;;28.27;14.05;;;-0.50;99.90;;;;;;5021858;28;20042;-52
2022/03/07 03:19:33;;;;;;;26.73;13.23;;;-0.50;99.90;;;;;;5028439;28;20041;-50
2022/03/07 03:22:00;;;;;;;25.20;13.15;;;-0.50;99.90;;;;;;5033491;28;20132;-52
2022/03/07 03:24:27;;;;;;;27.42;12.45;;;-0.50;99.90;;;;;;5028453;28;20041;-53
2022/03/07 03:26:54;;;;;;;24.38;12.75;;;-0.50;99.90;;;;;;5025275;28;20037;-52
2022/03/07 03:29:22;;;;;;;29.38;14.25;;;-0.50;99.90;;;;;;5033201;28;20049;-51
2022/03/07 03:31:49;;;;;;;25.98;12.93;;;-0.50;99.90;;;;;;5033366;28;20129;-50
2022/03/07 03:34:16;;;;;;;26.27;13.85;;;-0.50;99.90;;;;;;5026150;28;20053;-52
2022/03/07 03:36:45;;;;;;;24.92;13.15;;;-0.40;99.90;;;;;;5024991;28;20508;-52
2022/03/07 03:39:12;;;;;;;25.08;12.73;;;-0.40;99.90;;;;;;5032646;28;20433;-52
2022/03/07 03:41:39;;;;;;;22.13;12.55;;;-0.40;99.90;;;;;;5033335;28;20038;-53
2022/03/07 03:44:06;;;;;;;26.33;12.95;;;-0.50;99.90;;;;;;5023980;28;20046;-52
2022/03/07 03:46:33;;;;;;;23.52;12.85;;;-0.50;99.90;;;;;;5028372;28;20045;-52
2022/03/07 03:49:00;;;;;;;27.48;14.27;;;-0.60;99.90;;;;;;5032748;28;20137;-53
2022/03/07 03:51:27;;;;;;;26.05;13.35;;;-0.60;99.90;;;;;;5031283;28;20045;-52
2022/03/07 03:53:54;;;;;;;30.33;13.30;;;-0.60;99.90;;;;;;5022326;28;20053;-54
2022/03/07 03:56:21;;;;;;;27.08;13.73;;;-0.60;99.90;;;;;;5032946;28;20095;-56
2022/03/07 03:58:48;;;;;;;27.88;13.00;;;-0.60;99.90;;;;;;5032634;28;20041;-55
2022/03/07 04:01:15;;;;;;;30.30;14.07;;;-0.50;99.90;;;;;;5024381;28;20069;-50
2022/03/07 04:03:42;;;;;;;;;;;-0.60;99.90;;;;;;5024802;28;20163;-50
2022/03/07 04:06:10;;;;;;;25.13;12.55;;;-0.60;99.90;;;;;;5032708;28;19956;-54
2022/03/07 04:08:37;;;;;;;25.13;13.27;;;-0.50;99.90;;;;;;5025927;28;20050;-52
2022/03/07 04:11:04;;;;;;;26.80;13.30;;;-0.50;99.90;;;;;;5023444;28;20120;-50
2022/03/07 04:13:31;;;;;;;26.15;12.93;;;-0.50;99.90;;;;;;5032579;28;20049;-51
2022/03/07 04:15:58;;;;;;;32.70;13.07;;;-0.50;99.90;;;;;;5032533;28;20045;-53
2022/03/07 04:18:25;;;;;;;26.42;14.18;;;-0.60;99.90;;;;;;5020030;28;20124;-50
2022/03/07 04:20:51;;;;;;;19.75;10.48;;;-0.60;99.90;;;;;;5029744;28;20041;-53
2022/03/07 04:23:21;;;;;;;27.33;13.10;;;-0.50;99.90;;;;;;5032465;28;20041;-50
2022/03/07 04:25:48;;;;;;;27.67;14.75;;;-0.50;99.90;;;;;;5029434;28;20453;-52
2022/03/07 04:28:16;;;;;;;32.45;14.20;;;-0.50;99.90;;;;;;5024299;28;20600;-49
2022/03/07 04:30:43;;;;;;;;;;;-0.50;99.90;;;;;;5026395;28;20048;-51
2022/03/07 04:33:11;;;;;;;24.20;13.63;;;-0.50;99.90;;;;;;5012292;28;19930;-50
2022/03/07 04:35:38;;;;;;;25.13;13.90;;;-0.60;99.90;;;;;;5011397;28;20081;-51
2022/03/07 04:38:05;;;;;;;26.80;13.60;;;-0.60;99.90;;;;;;5022354;28;20038;-52
2022/03/07 04:40:32;;;;;;;32.22;13.75;;;-0.60;99.90;;;;;;5011695;28;20390;-52
2022/03/07 04:43:01;;;;;;;24.63;13.23;;;-0.60;99.90;;;;;;5012555;28;20042;-50
2022/03/07 04:45:28;;;;;;;28.10;13.98;;;-0.60;99.90;;;;;;5015954;28;20042;-50
2022/03/07 04:47:54;;;;;;;26.13;13.50;;;-0.60;99.90;;;;;;5029928;28;20453;-50
2022/03/07 04:50:21;;;;;;;27.17;14.13;;;-0.60;99.90;;;;;;5031801;28;20073;-50
2022/03/07 04:52:48;;;;;;;25.83;13.93;;;-0.60;99.90;;;;;;5030890;28;20583;-54
2022/03/07 04:55:15;;;;;;;25.92;13.48;;;-0.60;99.90;;;;;;5019480;28;20117;-51
2022/03/07 04:57:43;;;;;;;19.92;10.35;;;-0.60;99.90;;;;;;5027888;28;20053;-51
2022/03/07 05:00:12;;;;;;;27.75;13.48;;;-0.60;99.90;;;;;;5031733;28;20474;-54
2022/03/07 05:02:39;;;;;;;28.17;13.45;;;-0.60;99.90;;;;;;5024066;28;20052;-52
2022/03/07 05:05:06;;;;;;;24.63;12.88;;;-0.60;99.90;;;;;;5023518;28;20406;-53
2022/03/07 05:07:33;;;;;;;28.08;13.63;;;-0.60;99.90;;;;;;5011126;28;20046;-54
2022/03/07 05:10:00;;;;;;;19.90;10.30;;;-0.60;99.90;;;;;;5011052;28;20508;-49
2022/03/07 05:12:27;;;;;;;26.85;13.88;;;-0.60;99.90;;;;;;5014781;28;20046;-54
2022/03/07 05:14:54;;;;;;;32.08;14.43;;;-0.60;99.90;;;;;;5011565;28;20121;-51
2022/03/07 05:17:21;;;;;;;31.73;13.63;;;-0.60;99.90;;;;;;5008813;28;20422;-51
2022/03/07 05:19:48;;;;;;;26.92;14.93;;;-0.60;99.90;;;;;;5020038;28;20037;-51
2022/03/07 05:22:15;;;;;;;30.58;13.70;;;-0.60;99.90;;;;;;5031567;28;20033;-51
2022/03/07 05:24:42;;;;;;;31.33;14.70;;;-0.60;99.90;;;;;;5031442;28;20037;-50
2022/03/07 05:27:09;;;;;;;30.08;14.18;;;-0.60;99.90;;;;;;5015784;28;20521;-49
2022/03/07 05:29:37;;;;;;;30.98;14.90;;;-0.60;99.90;;;;;;5015542;28;20042;-51
2022/03/07 05:32:04;;;;;;;;;;;-0.70;99.90;;;;;;5011573;28;20065;-52
2022/03/07 05:34:30;;;;;;;29.38;13.73;;;-0.70;99.90;;;;;;5011065;28;19947;-51
2022/03/07 05:36:57;;;;;;;31.67;13.63;;;-0.70;99.90;;;;;;5018019;28;20064;-51
2022/03/07 05:39:24;;;;;;;27.88;13.75;;;-0.70;99.90;;;;;;5024879;28;20405;-54
2022/03/07 05:41:51;;;;;;;28.58;13.52;;;-0.70;99.90;;;;;;5031009;28;20556;-53
2022/03/07 05:44:18;;;;;;;29.83;13.82;;;-0.70;99.90;;;;;;5024572;28;20045;-53
2022/03/07 05:46:45;;;;;;;;;;;-0.70;99.90;;;;;;5022915;28;20041;-50
2022/03/07 05:49:12;;;;;;;26.85;12.65;;;-0.70;99.90;;;;;;5030912;28;19967;-53
2022/03/07 05:51:41;;;;;;;19.65;10.35;;;-0.70;99.90;;;;;;5031278;28;20088;-52
2022/03/07 05:54:07;;;;;;;34.08;14.82;;;-0.70;99.90;;;;;;5025385;28;20112;-53
2022/03/07 05:56:34;;;;;;;22.83;11.02;;;-0.70;99.90;;;;;;5026549;28;20050;-52
2022/03/07 05:59:01;;;;;;;27.77;13.48;;;-0.70;99.90;;;;;;5030874;28;20030;-52
2022/03/07 06:01:28;;;;;;;33.13;15.10;;;-0.70;99.90;;;;;;5031047;28;20041;-53
2022/03/07 06:03:56;;;;;;;38.58;15.13;;;-0.80;99.90;;;;;;5025649;28;20391;-53
2022/03/07 06:06:23;;;;;;;27.67;15.13;;;-0.80;99.90;;;;;;5024672;28;20572;-56
2022/03/07 06:08:50;;;;;;;30.75;15.55;;;-0.80;99.90;;;;;;5030457;28;20375;-50
2022/03/07 06:11:17;;;;;;;30.98;14.73;;;-0.70;99.90;;;;;;5027544;28;20041;-51
2022/03/07 06:13:44;;;;;;;31.23;14.20;;;-0.70;99.90;;;;;;5024158;28;20042;-52
2022/03/07 06:16:12;;;;;;;28.70;14.30;;;-0.70;99.90;;;;;;5034409;28;20045;-57
2022/03/07 06:18:39;;;;;;;29.80;15.32;;;-0.70;99.90;;;;;;5034634;28;20041;-54
2022/03/07 06:21:06;;;;;;;31.92;15.77;;;-0.70;99.90;;;;;;5029232;28;20539;-51
2022/03/07 06:23:33;;;;;;;34.80;14.43;;;-0.60;99.90;;;;;;5015670;28;20050;-51
2022/03/07 06:25:59;;;;;;;31.50;15.02;;;-0.60;99.90;;;;;;5014288;28;20046;-54
2022/03/07 06:28:26;;;;;;;26.58;14.18;;;-0.50;99.90;;;;;;5014301;28;20096;-55
2022/03/07 06:30:53;;;;;;;28.63;14.75;;;-0.50;99.90;;;;;;5007383;28;20038;-53
2022/03/07 06:33:20;;;;;;;37.38;15.90;;;-0.40;99.90;;;;;;5016415;28;20490;-51
2022/03/07 06:35:47;;;;;;;31.05;13.70;;;-0.40;99.90;;;;;;5014097;28;20041;-49
2022/03/07 06:38:14;;;;;;;29.50;14.88;;;-0.40;99.90;;;;;;5012932;28;20440;-56
2022/03/07 06:40:42;;;;;;;32.95;14.70;;;-0.40;99.90;;;;;;5015745;28;20564;-52
2022/03/07 06:43:08;;;;;;;;;;;-0.30;99.90;;;;;;5034543;28;20038;-53
2022/03/07 06:45:35;;;;;;;30.58;13.85;;;-0.30;99.90;;;;;;5033353;28;20421;-52
2022/03/07 06:48:02;;;;;;;30.25;13.75;;;-0.30;99.90;;;;;;5029116;28;20045;-54
2022/03/07 06:50:30;;;;;;;31.60;15.48;;;-0.30;99.90;;;;;;5020990;28;20395;-53
2022/03/07 06:52:57;;;;;;;;;;;-0.30;99.90;;;;;;5032571;28;20132;-53
2022/03/07 06:55:24;;;;;;;26.88;13.88;;;-0.30;99.90;;;;;;5034175;28;19925;-53
2022/03/07 06:57:52;;;;;;;28.92;14.63;;;-0.20;99.90;;;;;;5029638;28;20458;-53
2022/03/07 07:00:20;;;;;;;30.70;14.30;;;-0.10;99.90;;;;;;5024052;28;20046;-53
2022/03/07 07:02:47;;;;;;;29.63;14.50;;;-0.10;99.90;;;;;;5034058;28;20120;-54
2022/03/07 07:05:15;;;;;;;24.80;14.68;;;-0.10;99.90;;;;;;5032204;28;20049;-57
2022/03/07 07:07:44;;;;;;;28.58;15.20;;;0.00;99.90;;;;;;5018116;28;20518;-52
2022/03/07 07:10:13;;;;;;;30.90;14.35;;;0.00;99.90;;;;;;4994197;28;20050;-52
2022/03/07 07:12:39;;;;;;;32.10;14.60;;;-0.10;99.90;;;;;;4994788;28;20050;-53
2022/03/07 07:15:07;;;;;;;31.50;14.75;;;-0.10;99.90;;;;;;5019027;28;20046;-54
2022/03/07 07:17:35;;;;;;;30.88;14.65;;;0.00;99.90;;;;;;5028398;28;20045;-55
2022/03/07 07:20:02;;;;;;;;;;;0.10;99.90;;;;;;5033818;28;20053;-55
2022/03/07 07:22:30;;;;;;;22.00;11.00;;;0.10;99.90;;;;;;5025982;28;20274;-55
2022/03/07 07:25:00;;;;;;;31.15;14.80;;;0.10;99.90;;;;;;5025310;28;20133;-56
2022/03/07 07:27:27;;;;;;;30.23;14.30;;;0.20;99.90;;;;;;5033446;28;20092;-57
2022/03/07 07:29:54;;;;;;;;;;;0.30;99.90;;;;;;5033348;28;20091;-55
2022/03/07 07:32:21;;;;;;;28.60;14.63;;;0.30;99.90;;;;;;5025936;28;20016;-53
2022/03/07 07:34:48;;;;;;;30.60;14.85;;;0.40;99.90;;;;;;5030466;28;20050;-53
2022/03/07 07:37:15;;;;;;;28.73;14.45;;;0.50;99.90;;;;;;5033273;28;20041;-54
2022/03/07 07:39:46;;;;;;;27.50;14.65;;;0.50;99.90;;;;;;5029638;28;20076;-52
2022/03/07 07:42:13;;;;;;;28.92;14.50;;;0.60;99.90;;;;;;5024799;28;20084;-55
2022/03/07 07:44:40;;;;;;;26.05;14.10;;;0.70;99.90;;;;;;5033132;28;20591;-54
2022/03/07 07:47:09;;;;;;;35.50;15.35;;;0.80;99.90;;;;;;5032804;28;20041;-52
2022/03/07 07:49:37;;;;;;;28.63;15.30;;;0.80;99.90;;;;;;5026948;28;20470;-54
2022/03/07 07:52:05;;;;;;;28.98;14.63;;;0.90;99.90;;;;;;5024775;28;20599;-57
2022/03/07 07:54:32;;;;;;;35.20;15.73;;;1.00;99.90;;;;;;5033398;28;20045;-53
2022/03/07 07:56:59;;;;;;;41.42;16.05;;;1.00;99.90;;;;;;5029677;28;20095;-56
2022/03/07 07:59:26;;;;;;;28.52;14.73;;;1.00;99.90;;;;;;5020766;28;20039;-53
2022/03/07 08:01:53;;;;;;;29.85;14.70;;;1.10;99.90;;;;;;5030304;28;20038;-53
2022/03/07 08:04:20;;;;;;;38.05;15.88;;;1.10;99.90;;;;;;5032908;28;20103;-53
2022/03/07 08:06:47;;;;;;;31.17;16.00;;;1.20;99.90;;;;;;5023767;28;20065;-56
2022/03/07 08:09:15;;;;;;;29.70;15.23;;;1.30;99.90;;;;;;5024056;28;20460;-55
2022/03/07 08:11:42;;;;;;;32.05;15.68;;;1.20;99.90;;;;;;5032507;28;20049;-54
2022/03/07 08:14:09;;;;;;;29.33;14.63;;;1.10;99.90;;;;;;5032372;28;20045;-51
2022/03/07 08:16:36;;;;;;;25.35;13.68;;;1.10;99.90;;;;;;5022614;28;20457;-53
2022/03/07 08:19:03;;;;;;;30.63;15.77;;;1.20;99.90;;;;;;5031193;28;20056;-51
2022/03/07 08:21:30;;;;;;;29.67;15.43;;;1.20;99.90;;;;;;5032683;28;20037;-54
2022/03/07 08:24:02;;;;;;;32.20;14.88;;;1.30;99.90;;;;;;5023759;28;20041;-52
2022/03/07 08:26:29;;;;;;;30.48;15.20;;;1.30;99.90;;;;;;5026961;28;20046;-53
2022/03/07 08:28:56;;;;;;;29.20;15.93;;;1.40;99.90;;;;;;5031973;28;20041;-54
2022/03/07 08:32:13;;;;;;;28.88;15.65;;;1.40;99.90;;;;;;5060602;22;20045;-54
2022/03/07 08:34:40;;;;;;;32.38;14.90;;;1.50;99.90;;;;;;5042990;28;20041;-54
2022/03/07 08:37:07;;;;;;;31.25;15.32;;;1.70;99.90;;;;;;5053124;28;20068;-52
2022/03/07 08:39:34;;;;;;;34.88;17.25;;;1.80;99.90;;;;;;5046715;28;20490;-54
2022/03/07 08:42:01;;;;;;;28.75;14.93;;;1.70;99.90;;;;;;5055833;28;20066;-56
2022/03/07 08:44:27;;;;;;;29.67;14.43;;;1.70;99.90;;;;;;5065972;28;20040;-52
2022/03/07 08:46:54;;;;;;;31.17;16.13;;;1.70;99.90;;;;;;5071802;28;20558;-52
2022/03/07 08:49:21;;;;;;;33.58;15.98;;;1.60;99.90;;;;;;5066172;28;20047;-50
2022/03/07 08:51:48;;;;;;;30.08;15.65;;;1.70;99.90;;;;;;5057621;28;20493;-54
2022/03/07 08:54:17;;;;;;;36.30;16.02;;;1.70;99.90;;;;;;5071810;28;20489;-50
2022/03/07 08:56:44;;;;;;;33.38;16.67;;;1.80;99.90;;;;;;5071337;28;20064;-51
2022/03/07 08:59:11;;;;;;;33.10;16.52;;;1.90;99.90;;;;;;5067801;28;20032;-52
2022/03/07 09:01:38;;;;;;;30.50;16.13;;;1.90;99.90;;;;;;5055413;28;20061;-52
2022/03/07 09:04:05;;;;;;;32.55;16.02;;;2.00;99.90;;;;;;5070781;28;20047;-53
2022/03/07 09:06:32;;;;;;;30.08;16.20;;;1.90;99.90;;;;;;5071579;28;20122;-54
2022/03/07 09:08:59;;;;;;;25.05;12.88;;;1.90;99.90;;;;;;5053582;28;20445;-52
2022/03/07 09:11:46;;;;;;;35.17;15.77;;;1.90;99.90;;;;;;5068183;28;20048;-52
2022/03/07 09:14:14;;;;;;;29.17;15.60;;;2.00;99.90;;;;;;5071338;28;20044;-54
2022/03/07 09:16:42;;;;;;;27.60;15.52;;;2.10;99.90;;;;;;5062465;28;20501;-55
2022/03/07 09:19:09;;;;;;;29.45;16.42;;;2.10;99.90;;;;;;5050937;28;20048;-52
2022/03/07 09:21:36;;;;;;;33.85;16.85;;;2.20;99.90;;;;;;5051387;28;20040;-55
2022/03/07 09:24:03;;;;;;;33.13;16.23;;;2.20;99.90;;;;;;5051542;28;20428;-53
2022/03/07 09:26:30;;;;;;;32.38;16.83;;;2.30;99.90;;;;;;5051231;28;20505;-54
2022/03/07 09:28:57;;;;;;;29.40;16.58;;;2.30;99.90;;;;;;5062448;28;20044;-56
2022/03/07 09:31:24;;;;;;;31.92;15.98;;;2.40;99.90;;;;;;5070934;28;20041;-56
2022/03/07 09:33:51;;;;;;;33.65;15.77;;;2.40;99.90;;;;;;5071357;28;20040;-54
2022/03/07 09:36:18;;;;;;;32.67;16.48;;;2.50;99.90;;;;;;5054791;28;20037;-54
2022/03/07 09:38:45;;;;;;;28.50;16.40;;;2.60;99.90;;;;;;5067562;28;20044;-56
2022/03/07 09:41:12;;;;;;;31.83;16.80;;;2.70;99.90;;;;;;5071108;28;20401;-54
2022/03/07 09:43:39;;;;;;;31.02;15.27;;;2.80;99.90;;;;;;5064624;28;20079;-54
2022/03/07 09:46:06;;;;;;;29.83;15.55;;;2.80;99.90;;;;;;5061826;28;20036;-58
2022/03/07 09:48:33;;;;;;;29.38;15.98;;;2.70;99.90;;;;;;5072193;28;20118;-53
2022/03/07 09:51:00;;;;;;;32.92;15.98;;;2.60;99.90;;;;;;5074840;28;20094;-54
2022/03/07 09:53:29;;;;;;;32.38;16.13;;;2.50;99.90;;;;;;5065330;28;20055;-53
2022/03/07 09:55:56;;;;;;;22.60;11.65;;;2.40;99.90;;;;;;5066437;28;20036;-54
2022/03/07 09:58:23;;;;;;;32.58;16.85;;;2.40;99.90;;;;;;5074796;28;20094;-54
2022/03/07 10:00:50;;;;;;;29.15;15.95;;;2.50;99.90;;;;;;5074825;28;20040;-56
2022/03/07 10:03:20;;;;;;;32.22;16.55;;;2.50;99.90;;;;;;5060894;28;20071;-53
2022/03/07 10:05:48;;;;;;;29.75;16.00;;;2.50;99.90;;;;;;5066642;28;20040;-53
2022/03/07 10:08:29;;;;;;;31.15;16.35;;;2.60;99.90;;;;;;5075058;28;20099;-56
2022/03/07 10:10:56;;;;;;;28.00;15.32;;;2.80;99.90;;;;;;5074519;28;20044;-52
2022/03/07 10:13:24;;;;;;;30.52;15.23;;;2.90;99.90;;;;;;5057411;28;20569;-52
2022/03/07 10:16:00;;;;;;;29.05;16.13;;;2.90;99.90;;;;;;5066456;28;20450;-52
2022/03/07 10:18:29;;;;;;;30.88;16.73;;;3.00;99.90;;;;;;5074374;28;20041;-52
2022/03/07 10:21:01;;;;;;;28.73;15.77;;;2.90;99.70;;;;;;5067765;28;20052;-54
2022/03/07 10:23:29;;;;;;;29.38;14.85;;;3.00;99.90;;;;;;5068771;28;20036;-56
2022/03/07 10:26:09;;;;;;;30.33;17.15;;;3.10;99.80;;;;;;5074532;28;20094;-53
2022/03/07 10:28:41;;;;;;;33.60;16.52;;;3.00;99.90;;;;;;5063634;28;20049;-52
2022/03/07 10:31:16;;;;;;;28.80;15.68;;;3.10;99.80;;;;;;5065420;28;20036;-53
2022/03/07 10:33:47;;;;;;;29.15;15.93;;;3.20;99.70;;;;;;5074453;28;20036;-55
2022/03/07 10:36:14;;;;;;;31.98;16.35;;;3.30;99.30;;;;;;5074414;28;20063;-52
2022/03/07 10:38:44;;;;;;;33.72;17.48;;;3.20;99.00;;;;;;5067015;28;20040;-54
2022/03/07 10:41:11;;;;;;;30.60;16.77;;;3.20;99.20;;;;;;5058109;28;20056;-57
2022/03/07 10:43:50;;;;;;;30.05;17.38;;;3.10;98.50;;;;;;5074196;28;20558;-56
2022/03/07 10:46:25;;;;;;;35.33;18.05;;;3.10;99.50;;;;;;5074301;28;20041;-53
2022/03/07 10:48:52;;;;;;;35.20;17.42;;;3.10;98.70;;;;;;5059948;28;20053;-52
2022/03/07 10:51:20;;;;;;;31.73;17.02;;;3.10;99.50;;;;;;5067489;28;20037;-53
2022/03/07 10:53:47;;;;;;;32.78;16.77;;;3.20;98.60;;;;;;5074063;28;20048;-53
2022/03/07 10:56:16;;;;;;;33.60;17.23;;;3.20;98.10;;;;;;5073707;28;20055;-52
2022/03/07 10:58:48;;;;;;;32.85;17.13;;;3.20;97.70;;;;;;5058470;28;20041;-55
2022/03/07 11:01:34;;;;;;;30.90;16.98;;;3.20;98.10;;;;;;5033981;28;20049;-55
2022/03/07 11:04:02;;;;;;;34.40;16.85;;;3.10;98.20;;;;;;5033859;28;20069;-53
2022/03/07 11:06:29;;;;;;;29.85;15.75;;;3.10;97.80;;;;;;5056098;28;20045;-54
2022/03/07 11:08:56;;;;;;;25.90;15.43;;;3.10;97.30;;;;;;5071485;28;20032;-54
2022/03/07 11:11:22;;;;;;;29.85;16.05;;;3.10;96.50;;;;;;5073652;28;20048;-54
2022/03/07 11:13:53;;;;;;;33.83;16.48;;;3.10;96.40;;;;;;5066405;28;20064;-54
2022/03/07 11:16:21;;;;;;;27.63;15.15;;;3.10;97.10;;;;;;5067200;28;20060;-52
2022/03/07 11:18:53;;;;;;;28.63;15.63;;;3.20;96.50;;;;;;5073098;28;20037;-55
2022/03/07 11:21:28;;;;;;;30.05;15.60;;;3.20;96.30;;;;;;5068598;28;20047;-55
2022/03/07 11:23:56;;;;;;;28.15;14.57;;;3.20;95.70;;;;;;5064842;28;20047;-53
2022/03/07 11:26:23;;;;;;;;;;;3.20;96.20;;;;;;5073815;28;20090;-54
2022/03/07 11:28:51;;;;;;;27.17;14.68;;;3.30;95.40;;;;;;5068048;28;19933;-55
2022/03/07 11:31:32;;;;;;;31.30;15.65;;;3.40;95.90;;;;;;5064746;28;20040;-51
2022/03/07 11:34:06;;;;;;;27.58;14.57;;;3.30;95.50;;;;;;5073231;28;20078;-52
2022/03/07 11:36:38;;;;;;;27.33;14.30;;;3.20;95.80;;;;;;5068188;28;20501;-53
2022/03/07 11:39:05;;;;;;;28.17;14.38;;;3.30;94.40;;;;;;5063379;28;20451;-52
2022/03/07 11:41:36;;;;;;;27.55;14.45;;;3.30;94.50;;;;;;5073145;28;20047;-53
2022/03/07 11:44:14;;;;;;;27.63;15.00;;;3.30;94.30;;;;;;5072911;28;20056;-53
2022/03/07 11:46:45;;;;;;;28.20;14.50;;;3.30;94.60;;;;;;5063440;28;20453;-50
2022/03/07 11:49:27;;;;;;;30.77;15.70;;;3.40;94.20;;;;;;5056938;28;20048;-51
2022/03/07 11:51:59;;;;;;;29.65;15.50;;;3.50;94.30;;;;;;5072909;28;20040;-53
2022/03/07 11:54:26;;;;;;;35.78;15.38;;;3.50;94.30;;;;;;5071656;28;20044;-53
2022/03/07 11:57:05;;;;;;;30.73;15.35;;;3.60;93.30;;;;;;5061597;28;20037;-55
2022/03/07 11:59:32;;;;;;;31.65;15.52;;;3.60;94.70;;;;;;5072695;28;20044;-52
2022/03/07 12:01:59;;;;;;;28.95;14.85;;;3.60;93.50;;;;;;5072690;28;20090;-56
2022/03/07 12:04:36;;;;;;;;;;;3.60;93.40;;;;;;5058723;28;20044;-51
2022/03/07 12:07:03;;;;;;;31.42;14.75;;;3.60;93.10;;;;;;5064206;28;19939;-54
2022/03/07 12:09:32;;;;;;;29.38;15.60;;;3.50;93.80;;;;;;5071973;28;20053;-54
2022/03/07 12:12:07;;;;;;;28.88;14.43;;;3.50;94.30;;;;;;5071514;28;20072;-53
2022/03/07 12:14:37;;;;;;;28.80;15.80;;;3.30;93.90;;;;;;5062795;28;20071;-52
2022/03/07 12:17:23;;;;;;;28.20;14.60;;;3.30;94.30;;;;;;5063984;28;20050;-50
2022/03/07 12:19:55;;;;;;;30.70;16.35;;;3.40;94.40;;;;;;5072020;28;20045;-51
2022/03/07 12:22:25;;;;;;;25.75;14.18;;;3.50;95.00;;;;;;5065382;28;20036;-53
2022/03/07 12:24:54;;;;;;;27.20;14.80;;;3.70;92.90;;;;;;5063905;28;20040;-50
2022/03/07 12:27:25;;;;;;;33.55;15.52;;;3.70;93.80;;;;;;5072095;28;20418;-54
2022/03/07 12:29:52;;;;;;;30.98;15.50;;;3.80;93.70;;;;;;5068985;28;20052;-52
2022/03/07 12:32:20;;;;;;;28.92;15.48;;;3.90;93.70;;;;;;5060009;28;20041;-52
2022/03/07 12:34:47;;;;;;;31.92;14.90;;;4.00;92.90;;;;;;5068992;28;20048;-54
2022/03/07 12:37:20;;;;;;;30.10;15.05;;;4.10;92.80;;;;;;5072022;28;20056;-52
2022/03/07 12:39:50;;;;;;;33.50;14.55;;;4.10;90.90;;;;;;5046210;28;20040;-50
2022/03/07 12:42:23;;;;;;;28.63;15.20;;;4.20;91.90;;;;;;5064719;28;20063;-53